In Rescue
 
Open Full Screen Window  High Contrast Mode
Wind Gusting 00 knots
10
May 20, 2019 2:27 PM CDT
Weather Information
Wind Direction
  090 °
Wind Speed
  10 kt (12 mph)
Wind Gust
  00 kt (0 mph)
Altimeter
30.15 in
Visibility
10 SM
Temperature
14° C
57° F
Dewpoint
03° C
37° F
Humidity
48%
1hr Rain Fall
00.00 in.
24hr Rain Fall
00.00 in.
Sky Condition
Clear
VFR

METAR KRRT 201927Z AUTO 09010KT 10SM CLR 14/03 A3015 RMK AO2

FAA Disclaimer: The data displayed is for advisory purposes only and is not to be used for flight planning or operations.